sensor_id;sensor_type;location;lat;lon;timestamp;temperature;humidity
75994;DHT22;64680;53.800;9.988;2023-02-26T00:01:40;-3.10;60.40
75994;DHT22;64680;53.800;9.988;2023-02-26T00:04:08;-3.10;59.80
75994;DHT22;64680;53.800;9.988;2023-02-26T00:06:37;-3.10;59.40
75994;DHT22;64680;53.800;9.988;2023-02-26T00:09:04;-3.10;59.20
75994;DHT22;64680;53.800;9.988;2023-02-26T00:11:30;-3.10;58.90
75994;DHT22;64680;53.800;9.988;2023-02-26T00:13:57;-3.10;58.70
75994;DHT22;64680;53.800;9.988;2023-02-26T00:16:30;-3.20;58.00
75994;DHT22;64680;53.800;9.988;2023-02-26T00:18:58;-3.20;57.90
75994;DHT22;64680;53.800;9.988;2023-02-26T00:21:25;-3.30;57.50
75994;DHT22;64680;53.800;9.988;2023-02-26T00:23:51;-3.30;57.40
75994;DHT22;64680;53.800;9.988;2023-02-26T00:26:17;-3.30;57.30
75994;DHT22;64680;53.800;9.988;2023-02-26T00:28:43;-3.40;57.80
75994;DHT22;64680;53.800;9.988;2023-02-26T00:31:10;-3.40;57.50
75994;DHT22;64680;53.800;9.988;2023-02-26T00:33:36;-3.40;57.70
75994;DHT22;64680;53.800;9.988;2023-02-26T00:41:47;-3.40;58.40
75994;DHT22;64680;53.800;9.988;2023-02-26T00:44:13;-3.30;58.20
75994;DHT22;64680;53.800;9.988;2023-02-26T00:46:53;-3.30;58.10
75994;DHT22;64680;53.800;9.988;2023-02-26T00:52:15;-3.30;58.00
75994;DHT22;64680;53.800;9.988;2023-02-26T00:54:44;-3.20;58.30
75994;DHT22;64680;53.800;9.988;2023-02-26T00:57:10;-3.10;58.70
75994;DHT22;64680;53.800;9.988;2023-02-26T00:59:35;-3.10;58.50
75994;DHT22;64680;53.800;9.988;2023-02-26T01:02:01;-3.00;58.30
75994;DHT22;64680;53.800;9.988;2023-02-26T01:04:27;-3.00;57.90
75994;DHT22;64680;53.800;9.988;2023-02-26T01:06:55;-2.90;58.00
75994;DHT22;64680;53.800;9.988;2023-02-26T01:09:25;-2.80;57.90
75994;DHT22;64680;53.800;9.988;2023-02-26T01:11:52;-2.70;58.00
75994;DHT22;64680;53.800;9.988;2023-02-26T01:14:18;-2.60;58.10
75994;DHT22;64680;53.800;9.988;2023-02-26T01:22:20;-2.20;54.90
75994;DHT22;64680;53.800;9.988;2023-02-26T01:24:48;-2.10;53.50
75994;DHT22;64680;53.800;9.988;2023-02-26T01:27:17;-2.00;51.30
75994;DHT22;64680;53.800;9.988;2023-02-26T01:29:43;-2.00;49.90
75994;DHT22;64680;53.800;9.988;2023-02-26T01:32:15;-1.90;49.00
75994;DHT22;64680;53.800;9.988;2023-02-26T01:35:10;-1.90;47.30
75994;DHT22;64680;53.800;9.988;2023-02-26T01:37:56;-1.90;45.40
75994;DHT22;64680;53.800;9.988;2023-02-26T01:43:23;-2.00;43.30
75994;DHT22;64680;53.800;9.988;2023-02-26T01:48:40;-2.20;44.30
75994;DHT22;64680;53.800;9.988;2023-02-26T01:51:08;-2.40;44.00
75994;DHT22;64680;53.800;9.988;2023-02-26T01:53:34;-2.50;45.00
75994;DHT22;64680;53.800;9.988;2023-02-26T01:56:03;-2.60;45.70
75994;DHT22;64680;53.800;9.988;2023-02-26T01:58:33;-2.80;45.90
75994;DHT22;64680;53.800;9.988;2023-02-26T02:01:01;-2.90;47.40
75994;DHT22;64680;53.800;9.988;2023-02-26T02:03:29;-2.90;47.90
75994;DHT22;64680;53.800;9.988;2023-02-26T02:06:02;-3.00;48.50
75994;DHT22;64680;53.800;9.988;2023-02-26T02:08:29;-3.10;49.00
75994;DHT22;64680;53.800;9.988;2023-02-26T02:10:55;-3.20;49.90
75994;DHT22;64680;53.800;9.988;2023-02-26T02:24:20;-3.50;52.90
75994;DHT22;64680;53.800;9.988;2023-02-26T02:27:02;-3.50;53.40
75994;DHT22;64680;53.800;9.988;2023-02-26T02:30:02;-3.60;53.50
75994;DHT22;64680;53.800;9.988;2023-02-26T02:32:45;-3.60;54.20
75994;DHT22;64680;53.800;9.988;2023-02-26T02:35:13;-3.60;54.20
75994;DHT22;64680;53.800;9.988;2023-02-26T02:37:56;-3.60;54.80
75994;DHT22;64680;53.800;9.988;2023-02-26T02:40:28;-3.70;54.80
75994;DHT22;64680;53.800;9.988;2023-02-26T02:42:58;-3.70;54.80
75994;DHT22;64680;53.800;9.988;2023-02-26T02:45:37;-3.70;55.20
75994;DHT22;64680;53.800;9.988;2023-02-26T02:50:47;-3.80;55.40
75994;DHT22;64680;53.800;9.988;2023-02-26T02:53:22;-3.80;55.10
75994;DHT22;64680;53.800;9.988;2023-02-26T02:56:04;-3.90;54.90
75994;DHT22;64680;53.800;9.988;2023-02-26T02:58:41;-3.90;54.90
75994;DHT22;64680;53.800;9.988;2023-02-26T03:01:10;-4.00;54.80
75994;DHT22;64680;53.800;9.988;2023-02-26T03:06:21;-4.10;54.90
75994;DHT22;64680;53.800;9.988;2023-02-26T03:08:48;-4.10;55.20
75994;DHT22;64680;53.800;9.988;2023-02-26T03:11:15;-4.10;54.90
75994;DHT22;64680;53.800;9.988;2023-02-26T03:13:40;-4.20;54.50
75994;DHT22;64680;53.800;9.988;2023-02-26T03:19:01;-4.20;54.20
75994;DHT22;64680;53.800;9.988;2023-02-26T03:24:28;-4.30;53.70
75994;DHT22;64680;53.800;9.988;2023-02-26T03:27:09;-4.30;54.10
75994;DHT22;64680;53.800;9.988;2023-02-26T03:32:23;-4.30;53.50
75994;DHT22;64680;53.800;9.988;2023-02-26T03:40:18;-4.30;52.10
75994;DHT22;64680;53.800;9.988;2023-02-26T03:43:17;-4.40;51.90
75994;DHT22;64680;53.800;9.988;2023-02-26T03:45:43;-4.40;51.70
75994;DHT22;64680;53.800;9.988;2023-02-26T03:48:12;-4.40;50.80
75994;DHT22;64680;53.800;9.988;2023-02-26T03:50:47;-4.40;49.90
75994;DHT22;64680;53.800;9.988;2023-02-26T03:53:18;-4.40;49.00
75994;DHT22;64680;53.800;9.988;2023-02-26T03:58:36;-4.40;47.50
75994;DHT22;64680;53.800;9.988;2023-02-26T04:01:10;-4.40;47.60
75994;DHT22;64680;53.800;9.988;2023-02-26T04:03:44;-4.50;47.10
75994;DHT22;64680;53.800;9.988;2023-02-26T04:06:12;-4.50;47.00
75994;DHT22;64680;53.800;9.988;2023-02-26T04:08:39;-4.50;48.20
75994;DHT22;64680;53.800;9.988;2023-02-26T04:11:10;-4.50;47.60
75994;DHT22;64680;53.800;9.988;2023-02-26T04:13:36;-4.60;47.10
75994;DHT22;64680;53.800;9.988;2023-02-26T04:16:02;-4.50;46.50
75994;DHT22;64680;53.800;9.988;2023-02-26T04:18:28;-4.60;46.30
75994;DHT22;64680;53.800;9.988;2023-02-26T04:20:54;-4.60;46.30
75994;DHT22;64680;53.800;9.988;2023-02-26T04:23:20;-4.60;45.60
75994;DHT22;64680;53.800;9.988;2023-02-26T04:25:46;-4.60;45.20
75994;DHT22;64680;53.800;9.988;2023-02-26T04:28:11;-4.60;44.80
75994;DHT22;64680;53.800;9.988;2023-02-26T04:30:37;-4.60;44.30
75994;DHT22;64680;53.800;9.988;2023-02-26T04:33:02;-4.70;44.00
75994;DHT22;64680;53.800;9.988;2023-02-26T04:35:28;-4.70;44.00
75994;DHT22;64680;53.800;9.988;2023-02-26T04:37:54;-4.70;43.60
75994;DHT22;64680;53.800;9.988;2023-02-26T04:40:19;-4.70;43.20
75994;DHT22;64680;53.800;9.988;2023-02-26T04:42:45;-4.80;43.20
75994;DHT22;64680;53.800;9.988;2023-02-26T04:45:10;-4.80;43.40
75994;DHT22;64680;53.800;9.988;2023-02-26T04:47:36;-4.90;44.00
75994;DHT22;64680;53.800;9.988;2023-02-26T04:50:02;-4.90;44.50
75994;DHT22;64680;53.800;9.988;2023-02-26T04:52:28;-4.90;45.50
75994;DHT22;64680;53.800;9.988;2023-02-26T04:54:53;-4.90;45.60
75994;DHT22;64680;53.800;9.988;2023-02-26T04:57:19;-5.00;46.40
75994;DHT22;64680;53.800;9.988;2023-02-26T04:59:44;-5.00;47.10
75994;DHT22;64680;53.800;9.988;2023-02-26T05:02:10;-5.00;47.40
75994;DHT22;64680;53.800;9.988;2023-02-26T05:04:35;-5.00;48.30
75994;DHT22;64680;53.800;9.988;2023-02-26T05:07:01;-4.90;48.90
75994;DHT22;64680;53.800;9.988;2023-02-26T05:09:26;-4.90;49.30
75994;DHT22;64680;53.800;9.988;2023-02-26T05:11:52;-4.90;49.40
75994;DHT22;64680;53.800;9.988;2023-02-26T05:14:18;-4.90;49.70
75994;DHT22;64680;53.800;9.988;2023-02-26T05:16:43;-4.90;50.70
75994;DHT22;64680;53.800;9.988;2023-02-26T05:19:09;-4.90;50.90
75994;DHT22;64680;53.800;9.988;2023-02-26T05:21:34;-4.90;50.70
75994;DHT22;64680;53.800;9.988;2023-02-26T05:24:00;-4.90;50.60
75994;DHT22;64680;53.800;9.988;2023-02-26T05:26:26;-5.00;50.60
75994;DHT22;64680;53.800;9.988;2023-02-26T05:28:51;-5.00;50.90
75994;DHT22;64680;53.800;9.988;2023-02-26T05:31:17;-5.00;51.10
75994;DHT22;64680;53.800;9.988;2023-02-26T05:33:42;-5.00;51.40
75994;DHT22;64680;53.800;9.988;2023-02-26T05:36:09;-5.10;52.90
75994;DHT22;64680;53.800;9.988;2023-02-26T05:38:35;-5.10;52.20
75994;DHT22;64680;53.800;9.988;2023-02-26T05:41:01;-5.10;52.90
75994;DHT22;64680;53.800;9.988;2023-02-26T05:43:27;-5.10;52.90
75994;DHT22;64680;53.800;9.988;2023-02-26T05:45:53;-5.10;53.50
75994;DHT22;64680;53.800;9.988;2023-02-26T05:48:20;-5.10;54.00
75994;DHT22;64680;53.800;9.988;2023-02-26T05:50:47;-5.10;54.40
75994;DHT22;64680;53.800;9.988;2023-02-26T05:53:13;-5.10;54.30
75994;DHT22;64680;53.800;9.988;2023-02-26T05:55:38;-5.10;54.50
75994;DHT22;64680;53.800;9.988;2023-02-26T05:58:04;-5.10;54.70
75994;DHT22;64680;53.800;9.988;2023-02-26T06:00:29;-5.20;55.00
75994;DHT22;64680;53.800;9.988;2023-02-26T06:02:55;-5.20;55.00
75994;DHT22;64680;53.800;9.988;2023-02-26T06:05:21;-5.20;56.30
75994;DHT22;64680;53.800;9.988;2023-02-26T06:07:47;-5.20;55.60
75994;DHT22;64680;53.800;9.988;2023-02-26T06:10:12;-5.20;55.80
75994;DHT22;64680;53.800;9.988;2023-02-26T06:12:38;-5.30;55.70
75994;DHT22;64680;53.800;9.988;2023-02-26T06:15:06;-5.20;55.90
75994;DHT22;64680;53.800;9.988;2023-02-26T06:17:32;-5.30;56.10
75994;DHT22;64680;53.800;9.988;2023-02-26T06:19:58;-5.20;56.50
75994;DHT22;64680;53.800;9.988;2023-02-26T06:22:23;-5.20;56.50
75994;DHT22;64680;53.800;9.988;2023-02-26T06:24:49;-5.20;56.80
75994;DHT22;64680;53.800;9.988;2023-02-26T06:27:15;-5.10;57.00
75994;DHT22;64680;53.800;9.988;2023-02-26T06:29:40;-5.10;57.10
75994;DHT22;64680;53.800;9.988;2023-02-26T06:32:06;-5.00;57.10
75994;DHT22;64680;53.800;9.988;2023-02-26T06:34:32;-4.80;57.60
75994;DHT22;64680;53.800;9.988;2023-02-26T06:36:58;-4.70;57.90
75994;DHT22;64680;53.800;9.988;2023-02-26T06:39:23;-4.50;57.90
75994;DHT22;64680;53.800;9.988;2023-02-26T06:41:49;-4.40;57.60
75994;DHT22;64680;53.800;9.988;2023-02-26T06:44:14;-4.30;57.20
75994;DHT22;64680;53.800;9.988;2023-02-26T06:46:40;-4.10;56.70
75994;DHT22;64680;53.800;9.988;2023-02-26T06:49:06;-4.10;56.00
75994;DHT22;64680;53.800;9.988;2023-02-26T06:51:31;-4.00;55.10
75994;DHT22;64680;53.800;9.988;2023-02-26T06:53:57;-4.00;54.20
75994;DHT22;64680;53.800;9.988;2023-02-26T06:56:23;-4.10;52.40
75994;DHT22;64680;53.800;9.988;2023-02-26T06:58:49;-4.10;51.90
75994;DHT22;64680;53.800;9.988;2023-02-26T07:01:15;-4.10;52.00
75994;DHT22;64680;53.800;9.988;2023-02-26T07:03:40;-4.00;51.40
75994;DHT22;64680;53.800;9.988;2023-02-26T07:06:06;-4.00;51.40
75994;DHT22;64680;53.800;9.988;2023-02-26T07:08:33;-3.90;51.60
75994;DHT22;64680;53.800;9.988;2023-02-26T07:10:59;-3.70;51.10
75994;DHT22;64680;53.800;9.988;2023-02-26T07:13:25;-3.50;50.60
75994;DHT22;64680;53.800;9.988;2023-02-26T07:15:50;-3.30;49.80
75994;DHT22;64680;53.800;9.988;2023-02-26T07:18:16;-3.10;48.40
75994;DHT22;64680;53.800;9.988;2023-02-26T07:20:42;-2.90;45.40
75994;DHT22;64680;53.800;9.988;2023-02-26T07:23:09;-2.80;42.60
75994;DHT22;64680;53.800;9.988;2023-02-26T07:25:35;-2.70;41.40
75994;DHT22;64680;53.800;9.988;2023-02-26T07:28:02;-2.60;40.70
75994;DHT22;64680;53.800;9.988;2023-02-26T07:30:28;-2.60;40.30
75994;DHT22;64680;53.800;9.988;2023-02-26T07:32:54;-2.50;40.40
75994;DHT22;64680;53.800;9.988;2023-02-26T07:35:19;-2.40;39.50
75994;DHT22;64680;53.800;9.988;2023-02-26T07:37:45;-2.30;39.20
75994;DHT22;64680;53.800;9.988;2023-02-26T07:40:11;-2.20;37.80
75994;DHT22;64680;53.800;9.988;2023-02-26T07:42:38;-2.20;37.10
75994;DHT22;64680;53.800;9.988;2023-02-26T07:45:04;-2.10;36.90
75994;DHT22;64680;53.800;9.988;2023-02-26T07:47:30;-2.00;36.10
75994;DHT22;64680;53.800;9.988;2023-02-26T07:49:56;-2.00;36.10
75994;DHT22;64680;53.800;9.988;2023-02-26T07:52:22;-1.90;35.60
75994;DHT22;64680;53.800;9.988;2023-02-26T07:54:47;-1.80;34.80
75994;DHT22;64680;53.800;9.988;2023-02-26T07:57:13;-1.70;34.60
75994;DHT22;64680;53.800;9.988;2023-02-26T07:59:39;-1.60;34.00
75994;DHT22;64680;53.800;9.988;2023-02-26T08:02:04;-1.60;33.30
75994;DHT22;64680;53.800;9.988;2023-02-26T08:04:30;-1.50;32.00
75994;DHT22;64680;53.800;9.988;2023-02-26T08:06:58;-1.40;31.60
75994;DHT22;64680;53.800;9.988;2023-02-26T08:09:25;-1.30;31.30
75994;DHT22;64680;53.800;9.988;2023-02-26T08:11:51;-1.30;30.40
75994;DHT22;64680;53.800;9.988;2023-02-26T08:14:17;-1.20;30.70
75994;DHT22;64680;53.800;9.988;2023-02-26T08:16:42;-1.10;31.10
75994;DHT22;64680;53.800;9.988;2023-02-26T08:19:08;-1.00;29.60
75994;DHT22;64680;53.800;9.988;2023-02-26T08:21:34;-0.90;26.90
75994;DHT22;64680;53.800;9.988;2023-02-26T08:24:00;-0.70;26.50
75994;DHT22;64680;53.800;9.988;2023-02-26T08:26:26;-0.70;25.50
75994;DHT22;64680;53.800;9.988;2023-02-26T08:28:51;-0.50;23.60
75994;DHT22;64680;53.800;9.988;2023-02-26T08:31:17;-0.50;23.00
75994;DHT22;64680;53.800;9.988;2023-02-26T08:33:43;-0.40;21.80
75994;DHT22;64680;53.800;9.988;2023-02-26T08:36:09;-0.20;20.00
75994;DHT22;64680;53.800;9.988;2023-02-26T08:38:34;0.00;17.90
75994;DHT22;64680;53.800;9.988;2023-02-26T08:41:00;1.10;14.40
75994;DHT22;64680;53.800;9.988;2023-02-26T08:43:26;3.20;1.00
75994;DHT22;64680;53.800;9.988;2023-02-26T08:45:53;4.40;1.00
75994;DHT22;64680;53.800;9.988;2023-02-26T08:48:19;4.40;1.00
75994;DHT22;64680;53.800;9.988;2023-02-26T08:50:45;4.00;1.00
75994;DHT22;64680;53.800;9.988;2023-02-26T08:53:11;3.60;1.00
75994;DHT22;64680;53.800;9.988;2023-02-26T08:55:36;3.50;1.00
75994;DHT22;64680;53.800;9.988;2023-02-26T08:58:02;4.10;1.00
75994;DHT22;64680;53.800;9.988;2023-02-26T09:00:28;4.40;1.00
75994;DHT22;64680;53.800;9.988;2023-02-26T09:02:54;4.40;1.00
75994;DHT22;64680;53.800;9.988;2023-02-26T09:05:20;4.00;1.00
75994;DHT22;64680;53.800;9.988;2023-02-26T09:07:46;3.80;1.00
75994;DHT22;64680;53.800;9.988;2023-02-26T09:10:13;3.60;1.00
75994;DHT22;64680;53.800;9.988;2023-02-26T09:12:38;3.30;1.00
75994;DHT22;64680;53.800;9.988;2023-02-26T09:15:05;3.10;1.00
75994;DHT22;64680;53.800;9.988;2023-02-26T09:17:33;2.90;1.00
75994;DHT22;64680;53.800;9.988;2023-02-26T09:19:58;2.70;1.00
75994;DHT22;64680;53.800;9.988;2023-02-26T09:22:24;2.50;1.00
75994;DHT22;64680;53.800;9.988;2023-02-26T09:24:50;2.60;1.00
75994;DHT22;64680;53.800;9.988;2023-02-26T09:27:16;3.00;1.00
75994;DHT22;64680;53.800;9.988;2023-02-26T09:29:41;3.00;1.00
75994;DHT22;64680;53.800;9.988;2023-02-26T09:32:07;3.00;1.00
75994;DHT22;64680;53.800;9.988;2023-02-26T09:34:34;3.50;1.00
75994;DHT22;64680;53.800;9.988;2023-02-26T09:37:00;2.90;1.00
75994;DHT22;64680;53.800;9.988;2023-02-26T09:39:25;3.00;1.00
75994;DHT22;64680;53.800;9.988;2023-02-26T09:41:54;3.10;1.00
75994;DHT22;64680;53.800;9.988;2023-02-26T09:44:27;3.30;1.00
75994;DHT22;64680;53.800;9.988;2023-02-26T09:52:28;2.80;1.00
75994;DHT22;64680;53.800;9.988;2023-02-26T09:58:02;2.60;1.00
75994;DHT22;64680;53.800;9.988;2023-02-26T10:00:40;2.40;1.00
75994;DHT22;64680;53.800;9.988;2023-02-26T10:06:11;2.70;1.00
75994;DHT22;64680;53.800;9.988;2023-02-26T10:09:02;3.10;1.00
75994;DHT22;64680;53.800;9.988;2023-02-26T10:17:15;4.30;1.00
75994;DHT22;64680;53.800;9.988;2023-02-26T10:19:46;4.50;1.00
75994;DHT22;64680;53.800;9.988;2023-02-26T10:25:20;3.90;1.00
75994;DHT22;64680;53.800;9.988;2023-02-26T10:28:15;3.50;1.00
75994;DHT22;64680;53.800;9.988;2023-02-26T10:30:49;3.50;1.00
75994;DHT22;64680;53.800;9.988;2023-02-26T10:36:27;3.40;1.00
75994;DHT22;64680;53.800;9.988;2023-02-26T10:39:08;3.00;1.00
75994;DHT22;64680;53.800;9.988;2023-02-26T10:41:38;2.90;1.00
75994;DHT22;64680;53.800;9.988;2023-02-26T10:44:10;2.70;1.00
75994;DHT22;64680;53.800;9.988;2023-02-26T10:47:00;2.40;1.00
75994;DHT22;64680;53.800;9.988;2023-02-26T10:49:50;2.60;1.00
75994;DHT22;64680;53.800;9.988;2023-02-26T10:52:20;3.20;1.00
75994;DHT22;64680;53.800;9.988;2023-02-26T10:54:59;3.70;1.00
75994;DHT22;64680;53.800;9.988;2023-02-26T10:57:30;4.00;1.00
75994;DHT22;64680;53.800;9.988;2023-02-26T10:59:58;3.70;1.00
75994;DHT22;64680;53.800;9.988;2023-02-26T11:02:38;3.80;1.00
75994;DHT22;64680;53.800;9.988;2023-02-26T11:05:12;4.10;1.00
75994;DHT22;64680;53.800;9.988;2023-02-26T11:07:40;4.40;1.00
75994;DHT22;64680;53.800;9.988;2023-02-26T11:10:18;4.60;1.00
75994;DHT22;64680;53.800;9.988;2023-02-26T11:12:44;4.30;1.00
75994;DHT22;64680;53.800;9.988;2023-02-26T11:15:13;4.30;1.00
75994;DHT22;64680;53.800;9.988;2023-02-26T11:17:39;4.30;1.00
75994;DHT22;64680;53.800;9.988;2023-02-26T11:20:38;4.50;1.00
75994;DHT22;64680;53.800;9.988;2023-02-26T11:23:05;4.30;1.00
75994;DHT22;64680;53.800;9.988;2023-02-26T11:25:33;4.30;1.00
75994;DHT22;64680;53.800;9.988;2023-02-26T11:28:04;5.00;1.00
75994;DHT22;64680;53.800;9.988;2023-02-26T11:30:35;5.40;1.00
75994;DHT22;64680;53.800;9.988;2023-02-26T11:33:27;5.30;1.00
75994;DHT22;64680;53.800;9.988;2023-02-26T11:36:00;5.00;1.00
75994;DHT22;64680;53.800;9.988;2023-02-26T11:38:27;4.90;1.00
75994;DHT22;64680;53.800;9.988;2023-02-26T11:40:56;4.70;1.00
75994;DHT22;64680;53.800;9.988;2023-02-26T11:43:25;5.10;1.00
75994;DHT22;64680;53.800;9.988;2023-02-26T11:45:58;5.30;1.00
75994;DHT22;64680;53.800;9.988;2023-02-26T11:48:46;4.80;1.00
75994;DHT22;64680;53.800;9.988;2023-02-26T11:51:14;4.40;1.00
75994;DHT22;64680;53.800;9.988;2023-02-26T11:53:49;4.60;1.00
75994;DHT22;64680;53.800;9.988;2023-02-26T11:56:40;4.90;1.00
75994;DHT22;64680;53.800;9.988;2023-02-26T11:59:21;5.40;1.00
75994;DHT22;64680;53.800;9.988;2023-02-26T12:01:48;5.80;1.00
75994;DHT22;64680;53.800;9.988;2023-02-26T12:04:21;6.10;1.00
75994;DHT22;64680;53.800;9.988;2023-02-26T12:06:50;5.30;1.00
75994;DHT22;64680;53.800;9.988;2023-02-26T12:09:16;4.90;1.00
75994;DHT22;64680;53.800;9.988;2023-02-26T12:12:19;4.90;1.00
75994;DHT22;64680;53.800;9.988;2023-02-26T12:15:05;4.40;1.00
75994;DHT22;64680;53.800;9.988;2023-02-26T12:22:48;4.10;1.00
75994;DHT22;64680;53.800;9.988;2023-02-26T12:44:40;4.10;1.00
75994;DHT22;64680;53.800;9.988;2023-02-26T12:47:26;4.20;1.00
75994;DHT22;64680;53.800;9.988;2023-02-26T12:58:43;4.40;1.00
75994;DHT22;64680;53.800;9.988;2023-02-26T13:01:34;4.20;1.00
75994;DHT22;64680;53.800;9.988;2023-02-26T13:04:05;4.10;1.00
75994;DHT22;64680;53.800;9.988;2023-02-26T13:12:34;3.70;1.00
75994;DHT22;64680;53.800;9.988;2023-02-26T13:21:22;5.70;1.00
75994;DHT22;64680;53.800;9.988;2023-02-26T13:23:59;6.20;1.00
75994;DHT22;64680;53.800;9.988;2023-02-26T13:26:30;6.00;1.00
75994;DHT22;64680;53.800;9.988;2023-02-26T13:29:13;5.70;1.00
75994;DHT22;64680;53.800;9.988;2023-02-26T13:31:55;5.20;1.00
75994;DHT22;64680;53.800;9.988;2023-02-26T13:34:33;5.00;1.00
75994;DHT22;64680;53.800;9.988;2023-02-26T13:37:01;4.60;1.00
75994;DHT22;64680;53.800;9.988;2023-02-26T13:39:31;4.40;1.00
75994;DHT22;64680;53.800;9.988;2023-02-26T13:42:20;4.10;1.00
75994;DHT22;64680;53.800;9.988;2023-02-26T13:44:55;3.80;1.00
75994;DHT22;64680;53.800;9.988;2023-02-26T13:50:04;3.90;1.00
75994;DHT22;64680;53.800;9.988;2023-02-26T13:52:34;4.10;1.00
75994;DHT22;64680;53.800;9.988;2023-02-26T13:55:03;4.30;1.00
75994;DHT22;64680;53.800;9.988;2023-02-26T13:57:33;4.30;1.00
75994;DHT22;64680;53.800;9.988;2023-02-26T14:00:00;4.30;1.00
75994;DHT22;64680;53.800;9.988;2023-02-26T14:02:44;4.20;1.00
75994;DHT22;64680;53.800;9.988;2023-02-26T14:05:30;4.20;1.00
75994;DHT22;64680;53.800;9.988;2023-02-26T14:10:56;4.00;1.00
75994;DHT22;64680;53.800;9.988;2023-02-26T14:13:39;3.90;1.00
75994;DHT22;64680;53.800;9.988;2023-02-26T14:16:22;3.80;1.00
75994;DHT22;64680;53.800;9.988;2023-02-26T14:18:50;3.80;1.00
75994;DHT22;64680;53.800;9.988;2023-02-26T14:21:34;3.70;1.00
75994;DHT22;64680;53.800;9.988;2023-02-26T14:24:06;3.80;1.00
75994;DHT22;64680;53.800;9.988;2023-02-26T14:26:37;3.80;1.00
75994;DHT22;64680;53.800;9.988;2023-02-26T14:34:15;3.80;1.00
75994;DHT22;64680;53.800;9.988;2023-02-26T14:42:36;3.50;1.00
75994;DHT22;64680;53.800;9.988;2023-02-26T14:47:35;3.60;1.00
75994;DHT22;64680;53.800;9.988;2023-02-26T14:50:01;3.60;1.00
75994;DHT22;64680;53.800;9.988;2023-02-26T14:55:49;3.80;1.00
75994;DHT22;64680;53.800;9.988;2023-02-26T15:04:00;3.60;1.00
75994;DHT22;64680;53.800;9.988;2023-02-26T15:06:46;3.30;1.00
75994;DHT22;64680;53.800;9.988;2023-02-26T15:23:26;3.80;1.00
75994;DHT22;64680;53.800;9.988;2023-02-26T15:25:55;3.70;1.00
75994;DHT22;64680;53.800;9.988;2023-02-26T15:28:25;3.40;1.00
75994;DHT22;64680;53.800;9.988;2023-02-26T15:30:53;3.40;1.00
75994;DHT22;64680;53.800;9.988;2023-02-26T15:33:20;3.40;1.00
75994;DHT22;64680;53.800;9.988;2023-02-26T15:35:49;3.40;1.00
75994;DHT22;64680;53.800;9.988;2023-02-26T15:38:16;3.40;1.00
75994;DHT22;64680;53.800;9.988;2023-02-26T15:40:42;3.40;1.00
75994;DHT22;64680;53.800;9.988;2023-02-26T15:43:14;3.40;1.00
75994;DHT22;64680;53.800;9.988;2023-02-26T15:45:44;3.40;1.00
75994;DHT22;64680;53.800;9.988;2023-02-26T15:48:19;3.40;1.00
75994;DHT22;64680;53.800;9.988;2023-02-26T15:50:48;3.30;1.00
75994;DHT22;64680;53.800;9.988;2023-02-26T15:53:21;3.30;1.00
75994;DHT22;64680;53.800;9.988;2023-02-26T15:55:51;3.30;1.00
75994;DHT22;64680;53.800;9.988;2023-02-26T15:58:22;3.30;1.00
75994;DHT22;64680;53.800;9.988;2023-02-26T16:00:54;3.20;1.00
75994;DHT22;64680;53.800;9.988;2023-02-26T16:03:34;3.10;1.00
75994;DHT22;64680;53.800;9.988;2023-02-26T16:06:01;3.00;1.00
75994;DHT22;64680;53.800;9.988;2023-02-26T16:08:27;2.80;1.00
75994;DHT22;64680;53.800;9.988;2023-02-26T16:10:55;2.70;1.00
75994;DHT22;64680;53.800;9.988;2023-02-26T16:13:31;2.60;1.00
75994;DHT22;64680;53.800;9.988;2023-02-26T16:16:04;2.50;1.00
75994;DHT22;64680;53.800;9.988;2023-02-26T16:18:31;2.40;1.00
75994;DHT22;64680;53.800;9.988;2023-02-26T16:21:00;2.30;1.00
75994;DHT22;64680;53.800;9.988;2023-02-26T16:26:14;2.00;1.00
75994;DHT22;64680;53.800;9.988;2023-02-26T16:28:43;2.00;1.00
75994;DHT22;64680;53.800;9.988;2023-02-26T16:31:22;1.90;1.00
75994;DHT22;64680;53.800;9.988;2023-02-26T16:34:01;1.80;1.00
75994;DHT22;64680;53.800;9.988;2023-02-26T16:36:40;1.80;1.00
75994;DHT22;64680;53.800;9.988;2023-02-26T16:41:33;1.70;1.00
75994;DHT22;64680;53.800;9.988;2023-02-26T16:46:46;1.60;1.00
75994;DHT22;64680;53.800;9.988;2023-02-26T16:51:44;1.40;1.00
75994;DHT22;64680;53.800;9.988;2023-02-26T16:54:19;1.30;1.00
75994;DHT22;64680;53.800;9.988;2023-02-26T16:56:51;1.30;1.00
75994;DHT22;64680;53.800;9.988;2023-02-26T16:59:23;1.20;1.00
75994;DHT22;64680;53.800;9.988;2023-02-26T17:04:17;1.10;1.00
75994;DHT22;64680;53.800;9.988;2023-02-26T17:06:43;1.10;1.00
75994;DHT22;64680;53.800;9.988;2023-02-26T17:12:15;0.90;1.00
75994;DHT22;64680;53.800;9.988;2023-02-26T17:14:55;0.70;1.00
75994;DHT22;64680;53.800;9.988;2023-02-26T17:17:22;0.60;1.00
75994;DHT22;64680;53.800;9.988;2023-02-26T17:19:48;0.50;1.00
75994;DHT22;64680;53.800;9.988;2023-02-26T17:22:16;0.50;1.00
75994;DHT22;64680;53.800;9.988;2023-02-26T17:24:43;0.40;1.00
75994;DHT22;64680;53.800;9.988;2023-02-26T17:27:17;0.30;1.00
75994;DHT22;64680;53.800;9.988;2023-02-26T17:29:48;0.20;1.00
75994;DHT22;64680;53.800;9.988;2023-02-26T17:32:23;0.10;1.00
75994;DHT22;64680;53.800;9.988;2023-02-26T17:34:49;0.00;1.00
75994;DHT22;64680;53.800;9.988;2023-02-26T17:37:16;-0.10;1.00
75994;DHT22;64680;53.800;9.988;2023-02-26T17:39:42;-0.20;1.00
75994;DHT22;64680;53.800;9.988;2023-02-26T17:42:16;-0.30;1.00
75994;DHT22;64680;53.800;9.988;2023-02-26T17:44:44;-0.40;1.00
75994;DHT22;64680;53.800;9.988;2023-02-26T17:47:18;-0.40;1.00
75994;DHT22;64680;53.800;9.988;2023-02-26T17:49:45;-0.50;1.00
75994;DHT22;64680;53.800;9.988;2023-02-26T17:52:12;-0.60;1.00
75994;DHT22;64680;53.800;9.988;2023-02-26T17:54:38;-0.70;2.10
75994;DHT22;64680;53.800;9.988;2023-02-26T17:57:05;-0.80;2.70
75994;DHT22;64680;53.800;9.988;2023-02-26T17:59:31;-0.80;3.40
75994;DHT22;64680;53.800;9.988;2023-02-26T18:01:56;-0.80;4.30
75994;DHT22;64680;53.800;9.988;2023-02-26T18:04:22;-0.90;4.90
75994;DHT22;64680;53.800;9.988;2023-02-26T18:06:48;-0.90;5.40
75994;DHT22;64680;53.800;9.988;2023-02-26T18:09:14;-0.90;5.70
75994;DHT22;64680;53.800;9.988;2023-02-26T18:11:40;-1.00;6.90
75994;DHT22;64680;53.800;9.988;2023-02-26T18:14:07;-1.00;7.50
75994;DHT22;64680;53.800;9.988;2023-02-26T18:16:40;-1.10;8.30
75994;DHT22;64680;53.800;9.988;2023-02-26T18:19:06;-1.20;10.60
75994;DHT22;64680;53.800;9.988;2023-02-26T18:21:33;-1.20;11.20
75994;DHT22;64680;53.800;9.988;2023-02-26T18:23:59;-1.30;12.20
75994;DHT22;64680;53.800;9.988;2023-02-26T18:26:28;-1.40;13.10
75994;DHT22;64680;53.800;9.988;2023-02-26T18:28:55;-1.40;14.30
75994;DHT22;64680;53.800;9.988;2023-02-26T18:31:22;-1.50;15.50
75994;DHT22;64680;53.800;9.988;2023-02-26T18:33:49;-1.50;15.90
75994;DHT22;64680;53.800;9.988;2023-02-26T18:36:23;-1.60;16.80
75994;DHT22;64680;53.800;9.988;2023-02-26T18:38:55;-1.60;17.90
75994;DHT22;64680;53.800;9.988;2023-02-26T18:41:23;-1.60;18.80
75994;DHT22;64680;53.800;9.988;2023-02-26T18:43:48;-1.70;19.20
75994;DHT22;64680;53.800;9.988;2023-02-26T18:46:14;-1.80;20.00
75994;DHT22;64680;53.800;9.988;2023-02-26T18:48:40;-1.80;20.00
75994;DHT22;64680;53.800;9.988;2023-02-26T18:51:05;-1.90;20.80
75994;DHT22;64680;53.800;9.988;2023-02-26T18:53:31;-2.00;22.70
75994;DHT22;64680;53.800;9.988;2023-02-26T18:55:58;-2.10;23.90
75994;DHT22;64680;53.800;9.988;2023-02-26T18:58:24;-2.10;24.50
75994;DHT22;64680;53.800;9.988;2023-02-26T19:00:50;-2.10;26.50